sensor_id;sensor_type;location;lat;lon;timestamp;temperature;humidity
32640;DHT22;19049;52.524;11.468;2023-10-09T00:01:45;12.00;99.90
32640;DHT22;19049;52.524;11.468;2023-10-09T00:04:12;12.90;99.90
32640;DHT22;19049;52.524;11.468;2023-10-09T00:06:40;12.70;99.90
32640;DHT22;19049;52.524;11.468;2023-10-09T00:09:08;12.90;99.90
32640;DHT22;19049;52.524;11.468;2023-10-09T00:12:00;12.10;99.90
32640;DHT22;19049;52.524;11.468;2023-10-09T00:14:27;12.10;99.90
32640;DHT22;19049;52.524;11.468;2023-10-09T00:16:56;12.70;99.90
32640;DHT22;19049;52.524;11.468;2023-10-09T00:21:57;12.90;99.90
32640;DHT22;19049;52.524;11.468;2023-10-09T00:24:24;12.10;99.90
32640;DHT22;19049;52.524;11.468;2023-10-09T00:26:53;12.50;99.90
32640;DHT22;19049;52.524;11.468;2023-10-09T00:29:36;12.80;99.90
32640;DHT22;19049;52.524;11.468;2023-10-09T00:32:07;12.00;99.90
32640;DHT22;19049;52.524;11.468;2023-10-09T00:34:50;12.90;99.90
32640;DHT22;19049;52.524;11.468;2023-10-09T00:37:17;12.80;99.90
32640;DHT22;19049;52.524;11.468;2023-10-09T00:39:45;12.90;99.90
32640;DHT22;19049;52.524;11.468;2023-10-09T00:42:14;11.60;99.90
32640;DHT22;19049;52.524;11.468;2023-10-09T00:44:51;12.90;99.90
32640;DHT22;19049;52.524;11.468;2023-10-09T00:47:17;12.40;99.90
32640;DHT22;19049;52.524;11.468;2023-10-09T00:52:20;12.50;99.90
32640;DHT22;19049;52.524;11.468;2023-10-09T00:55:00;12.50;99.90
32640;DHT22;19049;52.524;11.468;2023-10-09T00:57:34;12.50;99.90
32640;DHT22;19049;52.524;11.468;2023-10-09T01:00:05;12.80;99.90
32640;DHT22;19049;52.524;11.468;2023-10-09T01:02:38;12.60;99.90
32640;DHT22;19049;52.524;11.468;2023-10-09T01:05:08;12.20;99.90
32640;DHT22;19049;52.524;11.468;2023-10-09T01:07:46;13.40;99.90
32640;DHT22;19049;52.524;11.468;2023-10-09T01:10:13;12.10;99.90
32640;DHT22;19049;52.524;11.468;2023-10-09T01:12:42;12.40;99.90
32640;DHT22;19049;52.524;11.468;2023-10-09T01:15:10;12.50;99.90
32640;DHT22;19049;52.524;11.468;2023-10-09T01:17:56;13.30;99.90
32640;DHT22;19049;52.524;11.468;2023-10-09T01:20:24;13.30;99.90
32640;DHT22;19049;52.524;11.468;2023-10-09T01:22:55;12.50;99.90
32640;DHT22;19049;52.524;11.468;2023-10-09T01:25:21;12.10;99.90
32640;DHT22;19049;52.524;11.468;2023-10-09T01:27:47;12.50;99.90
32640;DHT22;19049;52.524;11.468;2023-10-09T01:35:10;12.30;99.90
32640;DHT22;19049;52.524;11.468;2023-10-09T01:42:52;12.30;99.90
32640;DHT22;19049;52.524;11.468;2023-10-09T01:45:18;13.10;99.90
32640;DHT22;19049;52.524;11.468;2023-10-09T01:50:17;13.80;99.90
32640;DHT22;19049;52.524;11.468;2023-10-09T01:53:03;13.10;99.90
32640;DHT22;19049;52.524;11.468;2023-10-09T01:55:32;13.00;99.90
32640;DHT22;19049;52.524;11.468;2023-10-09T01:58:11;12.00;99.90
32640;DHT22;19049;52.524;11.468;2023-10-09T02:00:50;13.00;99.90
32640;DHT22;19049;52.524;11.468;2023-10-09T02:03:21;12.50;99.90
32640;DHT22;19049;52.524;11.468;2023-10-09T02:05:52;12.20;99.90
32640;DHT22;19049;52.524;11.468;2023-10-09T02:11:01;12.60;99.90
32640;DHT22;19049;52.524;11.468;2023-10-09T02:13:27;13.10;99.90
32640;DHT22;19049;52.524;11.468;2023-10-09T02:16:00;13.50;99.90
32640;DHT22;19049;52.524;11.468;2023-10-09T02:18:48;12.90;99.90
32640;DHT22;19049;52.524;11.468;2023-10-09T02:21:22;12.50;99.90
32640;DHT22;19049;52.524;11.468;2023-10-09T02:24:05;12.50;99.90
32640;DHT22;19049;52.524;11.468;2023-10-09T02:29:17;12.60;99.90
32640;DHT22;19049;52.524;11.468;2023-10-09T02:34:12;12.10;99.90
32640;DHT22;19049;52.524;11.468;2023-10-09T02:36:38;11.90;99.90
32640;DHT22;19049;52.524;11.468;2023-10-09T02:39:07;12.00;99.90
32640;DHT22;19049;52.524;11.468;2023-10-09T02:41:57;12.30;99.90
32640;DHT22;19049;52.524;11.468;2023-10-09T02:44:33;12.30;99.90
32640;DHT22;19049;52.524;11.468;2023-10-09T02:47:05;12.90;99.90
32640;DHT22;19049;52.524;11.468;2023-10-09T02:49:37;12.20;99.90
32640;DHT22;19049;52.524;11.468;2023-10-09T02:52:06;12.80;99.90
32640;DHT22;19049;52.524;11.468;2023-10-09T02:54:33;12.10;99.90
32640;DHT22;19049;52.524;11.468;2023-10-09T02:57:07;12.60;99.90
32640;DHT22;19049;52.524;11.468;2023-10-09T02:59:36;12.10;99.90
32640;DHT22;19049;52.524;11.468;2023-10-09T03:02:10;11.60;99.90
32640;DHT22;19049;52.524;11.468;2023-10-09T03:04:36;12.10;99.90
32640;DHT22;19049;52.524;11.468;2023-10-09T03:07:04;11.20;99.90
32640;DHT22;19049;52.524;11.468;2023-10-09T03:09:30;11.50;99.90
32640;DHT22;19049;52.524;11.468;2023-10-09T03:11:59;12.10;99.90
32640;DHT22;19049;52.524;11.468;2023-10-09T03:14:28;12.40;99.90
32640;DHT22;19049;52.524;11.468;2023-10-09T03:16:57;11.40;99.90
32640;DHT22;19049;52.524;11.468;2023-10-09T03:19:25;13.10;99.90
32640;DHT22;19049;52.524;11.468;2023-10-09T03:24:18;12.60;99.90
32640;DHT22;19049;52.524;11.468;2023-10-09T03:26:45;11.80;99.90
32640;DHT22;19049;52.524;11.468;2023-10-09T03:29:11;12.10;99.90
32640;DHT22;19049;52.524;11.468;2023-10-09T03:34:04;12.10;99.90
32640;DHT22;19049;52.524;11.468;2023-10-09T03:36:30;12.60;99.90
32640;DHT22;19049;52.524;11.468;2023-10-09T03:39:07;12.20;99.90
32640;DHT22;19049;52.524;11.468;2023-10-09T03:41:56;12.70;99.90
32640;DHT22;19049;52.524;11.468;2023-10-09T03:44:24;12.20;99.90
32640;DHT22;19049;52.524;11.468;2023-10-09T03:49:19;11.80;99.90
32640;DHT22;19049;52.524;11.468;2023-10-09T03:51:52;12.70;99.90
32640;DHT22;19049;52.524;11.468;2023-10-09T03:54:18;12.70;99.90
32640;DHT22;19049;52.524;11.468;2023-10-09T03:56:48;12.10;99.90
32640;DHT22;19049;52.524;11.468;2023-10-09T03:59:20;11.40;99.90
32640;DHT22;19049;52.524;11.468;2023-10-09T04:01:47;12.20;99.90
32640;DHT22;19049;52.524;11.468;2023-10-09T04:04:14;12.00;99.90
32640;DHT22;19049;52.524;11.468;2023-10-09T04:06:40;12.10;99.90
32640;DHT22;19049;52.524;11.468;2023-10-09T04:09:09;13.30;99.90
32640;DHT22;19049;52.524;11.468;2023-10-09T04:11:47;12.20;99.90
32640;DHT22;19049;52.524;11.468;2023-10-09T04:14:13;12.30;99.90
32640;DHT22;19049;52.524;11.468;2023-10-09T04:19:17;12.10;99.90
32640;DHT22;19049;52.524;11.468;2023-10-09T04:24:14;12.30;99.90
32640;DHT22;19049;52.524;11.468;2023-10-09T04:26:44;12.80;99.90
32640;DHT22;19049;52.524;11.468;2023-10-09T04:29:16;12.40;99.90
32640;DHT22;19049;52.524;11.468;2023-10-09T04:37:22;12.70;99.90
32640;DHT22;19049;52.524;11.468;2023-10-09T04:40:08;11.90;99.90
32640;DHT22;19049;52.524;11.468;2023-10-09T04:42:38;12.70;99.90
32640;DHT22;19049;52.524;11.468;2023-10-09T04:45:05;12.30;99.90
32640;DHT22;19049;52.524;11.468;2023-10-09T04:47:33;12.40;99.90
32640;DHT22;19049;52.524;11.468;2023-10-09T04:50:08;12.60;99.90
32640;DHT22;19049;52.524;11.468;2023-10-09T04:52:37;12.80;99.90
32640;DHT22;19049;52.524;11.468;2023-10-09T04:55:03;12.60;99.90
32640;DHT22;19049;52.524;11.468;2023-10-09T05:00:08;12.60;99.90
32640;DHT22;19049;52.524;11.468;2023-10-09T05:02:55;12.40;99.90
32640;DHT22;19049;52.524;11.468;2023-10-09T05:05:26;12.00;99.90
32640;DHT22;19049;52.524;11.468;2023-10-09T05:08:01;13.00;99.90
32640;DHT22;19049;52.524;11.468;2023-10-09T05:10:44;12.80;99.90
32640;DHT22;19049;52.524;11.468;2023-10-09T05:13:35;13.00;99.90
32640;DHT22;19049;52.524;11.468;2023-10-09T05:16:08;12.40;99.90
32640;DHT22;19049;52.524;11.468;2023-10-09T05:18:55;10.80;99.90
32640;DHT22;19049;52.524;11.468;2023-10-09T05:21:31;12.50;99.90
32640;DHT22;19049;52.524;11.468;2023-10-09T05:26:45;12.40;99.90
32640;DHT22;19049;52.524;11.468;2023-10-09T05:31:57;12.00;99.90
32640;DHT22;19049;52.524;11.468;2023-10-09T05:34:28;12.30;99.90
32640;DHT22;19049;52.524;11.468;2023-10-09T05:37:06;12.40;99.90
32640;DHT22;19049;52.524;11.468;2023-10-09T05:39:54;12.30;99.90
32640;DHT22;19049;52.524;11.468;2023-10-09T05:42:33;12.10;99.90
32640;DHT22;19049;52.524;11.468;2023-10-09T05:45:10;12.70;99.90
32640;DHT22;19049;52.524;11.468;2023-10-09T05:47:50;12.70;99.90
32640;DHT22;19049;52.524;11.468;2023-10-09T05:50:26;12.40;99.90
32640;DHT22;19049;52.524;11.468;2023-10-09T05:52:56;12.40;99.90
32640;DHT22;19049;52.524;11.468;2023-10-09T05:55:25;12.40;99.90
32640;DHT22;19049;52.524;11.468;2023-10-09T06:00:45;12.80;99.90
32640;DHT22;19049;52.524;11.468;2023-10-09T06:06:14;12.00;99.90
32640;DHT22;19049;52.524;11.468;2023-10-09T06:09:05;12.40;99.90
32640;DHT22;19049;52.524;11.468;2023-10-09T06:11:45;12.20;99.90
32640;DHT22;19049;52.524;11.468;2023-10-09T06:14:24;12.40;99.90
32640;DHT22;19049;52.524;11.468;2023-10-09T06:16:56;12.40;99.90
32640;DHT22;19049;52.524;11.468;2023-10-09T06:19:23;13.00;99.90
32640;DHT22;19049;52.524;11.468;2023-10-09T06:21:57;12.40;99.90
32640;DHT22;19049;52.524;11.468;2023-10-09T06:24:30;12.60;99.90
32640;DHT22;19049;52.524;11.468;2023-10-09T06:27:07;12.60;99.90
32640;DHT22;19049;52.524;11.468;2023-10-09T06:29:33;12.10;99.90
32640;DHT22;19049;52.524;11.468;2023-10-09T06:32:08;12.50;99.90
32640;DHT22;19049;52.524;11.468;2023-10-09T06:34:57;12.40;99.90
32640;DHT22;19049;52.524;11.468;2023-10-09T06:37:47;11.50;99.90
32640;DHT22;19049;52.524;11.468;2023-10-09T06:43:03;13.00;99.90
32640;DHT22;19049;52.524;11.468;2023-10-09T06:45:50;12.00;99.90
32640;DHT22;19049;52.524;11.468;2023-10-09T06:48:48;11.70;99.90
32640;DHT22;19049;52.524;11.468;2023-10-09T06:53:55;11.70;99.90
32640;DHT22;19049;52.524;11.468;2023-10-09T07:07:07;12.80;99.90
32640;DHT22;19049;52.524;11.468;2023-10-09T07:09:38;11.90;99.90
32640;DHT22;19049;52.524;11.468;2023-10-09T07:12:32;11.90;99.90
32640;DHT22;19049;52.524;11.468;2023-10-09T07:15:00;11.40;99.90
32640;DHT22;19049;52.524;11.468;2023-10-09T07:17:50;11.90;99.90
32640;DHT22;19049;52.524;11.468;2023-10-09T07:23:03;11.30;99.90
32640;DHT22;19049;52.524;11.468;2023-10-09T07:28:22;11.40;99.90
32640;DHT22;19049;52.524;11.468;2023-10-09T07:31:08;11.60;99.90
32640;DHT22;19049;52.524;11.468;2023-10-09T07:33:42;11.00;99.90
32640;DHT22;19049;52.524;11.468;2023-10-09T07:36:22;11.80;99.90
32640;DHT22;19049;52.524;11.468;2023-10-09T07:39:04;11.80;99.90
32640;DHT22;19049;52.524;11.468;2023-10-09T07:47:18;12.40;99.90
32640;DHT22;19049;52.524;11.468;2023-10-09T07:50:03;11.70;99.90
32640;DHT22;19049;52.524;11.468;2023-10-09T08:00:04;11.30;99.90
32640;DHT22;19049;52.524;11.468;2023-10-09T08:05:25;11.90;99.90
32640;DHT22;19049;52.524;11.468;2023-10-09T08:19:04;12.00;99.90
32640;DHT22;19049;52.524;11.468;2023-10-09T08:27:07;12.10;99.90
32640;DHT22;19049;52.524;11.468;2023-10-09T08:32:37;12.10;99.90
32640;DHT22;19049;52.524;11.468;2023-10-09T08:35:06;12.10;99.90
32640;DHT22;19049;52.524;11.468;2023-10-09T08:42:53;12.10;99.90
32640;DHT22;19049;52.524;11.468;2023-10-09T08:45:22;12.30;99.90
32640;DHT22;19049;52.524;11.468;2023-10-09T08:47:56;12.10;99.90
32640;DHT22;19049;52.524;11.468;2023-10-09T08:50:22;12.30;99.90
32640;DHT22;19049;52.524;11.468;2023-10-09T08:52:54;12.20;99.90
32640;DHT22;19049;52.524;11.468;2023-10-09T08:55:20;11.70;99.90
32640;DHT22;19049;52.524;11.468;2023-10-09T09:00:19;11.30;99.90
32640;DHT22;19049;52.524;11.468;2023-10-09T09:02:50;12.20;99.90
32640;DHT22;19049;52.524;11.468;2023-10-09T09:05:22;12.70;99.90
32640;DHT22;19049;52.524;11.468;2023-10-09T09:10:15;12.40;99.90
32640;DHT22;19049;52.524;11.468;2023-10-09T09:15:19;12.30;99.90
32640;DHT22;19049;52.524;11.468;2023-10-09T09:17:46;12.20;99.90
32640;DHT22;19049;52.524;11.468;2023-10-09T09:20:27;12.30;99.90
32640;DHT22;19049;52.524;11.468;2023-10-09T09:25:24;12.70;99.90
32640;DHT22;19049;52.524;11.468;2023-10-09T09:30:35;11.50;99.90
32640;DHT22;19049;52.524;11.468;2023-10-09T09:33:20;12.40;99.90
32640;DHT22;19049;52.524;11.468;2023-10-09T09:36:03;12.80;99.90
32640;DHT22;19049;52.524;11.468;2023-10-09T09:38:31;12.50;99.90
32640;DHT22;19049;52.524;11.468;2023-10-09T09:41:19;12.70;99.90
32640;DHT22;19049;52.524;11.468;2023-10-09T09:43:55;12.60;99.90
32640;DHT22;19049;52.524;11.468;2023-10-09T09:46:22;12.30;99.90
32640;DHT22;19049;52.524;11.468;2023-10-09T09:49:02;12.60;99.90
32640;DHT22;19049;52.524;11.468;2023-10-09T09:51:32;12.60;99.90
32640;DHT22;19049;52.524;11.468;2023-10-09T09:53:58;12.60;99.90
32640;DHT22;19049;52.524;11.468;2023-10-09T09:56:28;12.60;99.90
32640;DHT22;19049;52.524;11.468;2023-10-09T09:58:57;12.60;99.90
32640;DHT22;19049;52.524;11.468;2023-10-09T10:01:29;12.70;99.90
32640;DHT22;19049;52.524;11.468;2023-10-09T10:04:10;12.60;99.90
32640;DHT22;19049;52.524;11.468;2023-10-09T10:06:40;12.10;99.90
32640;DHT22;19049;52.524;11.468;2023-10-09T10:11:46;12.70;99.90
32640;DHT22;19049;52.524;11.468;2023-10-09T10:14:17;12.40;99.90
32640;DHT22;19049;52.524;11.468;2023-10-09T10:17:07;12.50;99.90
32640;DHT22;19049;52.524;11.468;2023-10-09T10:22:29;11.30;99.90
32640;DHT22;19049;52.524;11.468;2023-10-09T10:25:02;13.00;99.90
32640;DHT22;19049;52.524;11.468;2023-10-09T10:32:55;12.50;99.90
32640;DHT22;19049;52.524;11.468;2023-10-09T10:35:24;12.30;99.90
32640;DHT22;19049;52.524;11.468;2023-10-09T10:43:23;12.60;99.90
32640;DHT22;19049;52.524;11.468;2023-10-09T10:46:08;13.00;99.90
32640;DHT22;19049;52.524;11.468;2023-10-09T10:51:12;13.20;99.90
32640;DHT22;19049;52.524;11.468;2023-10-09T10:53:53;12.70;99.90
32640;DHT22;19049;52.524;11.468;2023-10-09T10:56:25;12.10;99.90
32640;DHT22;19049;52.524;11.468;2023-10-09T10:59:02;13.20;99.90
32640;DHT22;19049;52.524;11.468;2023-10-09T11:01:32;12.80;99.90
32640;DHT22;19049;52.524;11.468;2023-10-09T11:07:02;12.80;99.90
32640;DHT22;19049;52.524;11.468;2023-10-09T11:15:07;12.60;99.90
32640;DHT22;19049;52.524;11.468;2023-10-09T11:17:37;13.00;99.90
32640;DHT22;19049;52.524;11.468;2023-10-09T11:20:06;13.50;99.90
32640;DHT22;19049;52.524;11.468;2023-10-09T11:22:50;13.40;99.90
32640;DHT22;19049;52.524;11.468;2023-10-09T11:25:42;13.10;99.90
32640;DHT22;19049;52.524;11.468;2023-10-09T11:28:22;12.70;99.90
32640;DHT22;19049;52.524;11.468;2023-10-09T11:31:11;13.30;99.90
32640;DHT22;19049;52.524;11.468;2023-10-09T11:33:47;13.60;99.90
32640;DHT22;19049;52.524;11.468;2023-10-09T11:36:15;13.10;99.90
32640;DHT22;19049;52.524;11.468;2023-10-09T11:41:19;13.10;99.90
32640;DHT22;19049;52.524;11.468;2023-10-09T11:43:49;13.80;99.90
32640;DHT22;19049;52.524;11.468;2023-10-09T11:46:20;12.20;99.90
32640;DHT22;19049;52.524;11.468;2023-10-09T11:49:06;13.20;99.90
32640;DHT22;19049;52.524;11.468;2023-10-09T11:54:33;13.30;99.90
32640;DHT22;19049;52.524;11.468;2023-10-09T11:56:59;13.80;99.90
32640;DHT22;19049;52.524;11.468;2023-10-09T11:59:29;12.80;99.90
32640;DHT22;19049;52.524;11.468;2023-10-09T12:02:09;13.40;99.90
32640;DHT22;19049;52.524;11.468;2023-10-09T12:04:41;12.80;99.90
32640;DHT22;19049;52.524;11.468;2023-10-09T12:09:37;13.30;99.90
32640;DHT22;19049;52.524;11.468;2023-10-09T12:12:04;13.50;99.90
32640;DHT22;19049;52.524;11.468;2023-10-09T12:14:30;13.50;99.90
32640;DHT22;19049;52.524;11.468;2023-10-09T12:17:09;14.00;99.90
32640;DHT22;19049;52.524;11.468;2023-10-09T12:19:41;13.50;99.90
32640;DHT22;19049;52.524;11.468;2023-10-09T12:22:08;13.60;99.90
32640;DHT22;19049;52.524;11.468;2023-10-09T12:24:42;13.60;99.90
32640;DHT22;19049;52.524;11.468;2023-10-09T12:27:11;13.80;99.90
32640;DHT22;19049;52.524;11.468;2023-10-09T12:29:37;13.60;99.90
32640;DHT22;19049;52.524;11.468;2023-10-09T12:32:03;13.30;99.90
32640;DHT22;19049;52.524;11.468;2023-10-09T12:34:30;14.00;99.90
32640;DHT22;19049;52.524;11.468;2023-10-09T12:36:57;13.60;99.90
32640;DHT22;19049;52.524;11.468;2023-10-09T12:39:27;13.60;99.90
32640;DHT22;19049;52.524;11.468;2023-10-09T12:41:59;13.60;99.90
32640;DHT22;19049;52.524;11.468;2023-10-09T12:47:07;14.30;99.90
32640;DHT22;19049;52.524;11.468;2023-10-09T12:49:33;13.70;99.90
32640;DHT22;19049;52.524;11.468;2023-10-09T12:51:59;13.70;99.90
32640;DHT22;19049;52.524;11.468;2023-10-09T12:54:25;13.80;99.90
32640;DHT22;19049;52.524;11.468;2023-10-09T12:56:55;13.80;99.90
32640;DHT22;19049;52.524;11.468;2023-10-09T13:01:47;13.90;99.90
32640;DHT22;19049;52.524;11.468;2023-10-09T13:06:44;14.00;99.90
32640;DHT22;19049;52.524;11.468;2023-10-09T13:09:15;14.10;99.90
32640;DHT22;19049;52.524;11.468;2023-10-09T13:11:42;14.10;99.90
32640;DHT22;19049;52.524;11.468;2023-10-09T13:14:09;14.20;99.90
32640;DHT22;19049;52.524;11.468;2023-10-09T13:21:38;14.10;99.90
32640;DHT22;19049;52.524;11.468;2023-10-09T13:26:41;14.00;99.90
32640;DHT22;19049;52.524;11.468;2023-10-09T13:34:06;14.80;99.90
32640;DHT22;19049;52.524;11.468;2023-10-09T13:36:35;13.70;99.90
32640;DHT22;19049;52.524;11.468;2023-10-09T13:39:05;14.20;99.90
32640;DHT22;19049;52.524;11.468;2023-10-09T13:46:53;14.20;99.90
32640;DHT22;19049;52.524;11.468;2023-10-09T13:54:16;13.70;99.90
32640;DHT22;19049;52.524;11.468;2023-10-09T13:57:06;14.20;99.90
32640;DHT22;19049;52.524;11.468;2023-10-09T13:59:36;14.20;99.90
32640;DHT22;19049;52.524;11.468;2023-10-09T14:02:03;14.20;99.90
32640;DHT22;19049;52.524;11.468;2023-10-09T14:07:00;14.80;99.90
32640;DHT22;19049;52.524;11.468;2023-10-09T14:09:28;14.30;99.90
32640;DHT22;19049;52.524;11.468;2023-10-09T14:12:00;14.20;99.90
32640;DHT22;19049;52.524;11.468;2023-10-09T14:14:39;14.30;99.90
32640;DHT22;19049;52.524;11.468;2023-10-09T14:17:18;13.90;99.90
32640;DHT22;19049;52.524;11.468;2023-10-09T14:19:55;14.20;99.90
32640;DHT22;19049;52.524;11.468;2023-10-09T14:22:23;14.30;99.90
32640;DHT22;19049;52.524;11.468;2023-10-09T14:24:54;14.40;99.90
32640;DHT22;19049;52.524;11.468;2023-10-09T14:27:24;15.00;99.90
32640;DHT22;19049;52.524;11.468;2023-10-09T14:29:55;15.00;99.90
32640;DHT22;19049;52.524;11.468;2023-10-09T14:32:22;14.10;99.90
32640;DHT22;19049;52.524;11.468;2023-10-09T14:34:55;14.20;99.90
32640;DHT22;19049;52.524;11.468;2023-10-09T14:37:26;14.30;99.90
32640;DHT22;19049;52.524;11.468;2023-10-09T14:47:15;14.00;99.90
32640;DHT22;19049;52.524;11.468;2023-10-09T14:49:41;14.30;99.90
32640;DHT22;19049;52.524;11.468;2023-10-09T14:52:12;14.10;99.90
32640;DHT22;19049;52.524;11.468;2023-10-09T14:54:42;14.90;99.90
32640;DHT22;19049;52.524;11.468;2023-10-09T15:02:03;14.40;99.90
32640;DHT22;19049;52.524;11.468;2023-10-09T15:04:31;13.90;99.90
32640;DHT22;19049;52.524;11.468;2023-10-09T15:09:23;14.10;99.90
32640;DHT22;19049;52.524;11.468;2023-10-09T15:11:54;14.60;99.90
32640;DHT22;19049;52.524;11.468;2023-10-09T15:19:13;14.40;99.90
32640;DHT22;19049;52.524;11.468;2023-10-09T15:21:39;14.00;99.90
32640;DHT22;19049;52.524;11.468;2023-10-09T15:24:13;14.60;99.90
32640;DHT22;19049;52.524;11.468;2023-10-09T15:31:36;15.50;99.90
32640;DHT22;19049;52.524;11.468;2023-10-09T15:41:29;14.10;99.90
32640;DHT22;19049;52.524;11.468;2023-10-09T15:44:00;14.30;99.90
32640;DHT22;19049;52.524;11.468;2023-10-09T15:46:26;14.50;99.90
32640;DHT22;19049;52.524;11.468;2023-10-09T15:51:22;14.00;99.90
32640;DHT22;19049;52.524;11.468;2023-10-09T15:56:14;15.10;99.90
32640;DHT22;19049;52.524;11.468;2023-10-09T16:01:17;14.60;99.90
32640;DHT22;19049;52.524;11.468;2023-10-09T16:03:44;15.10;99.90
32640;DHT22;19049;52.524;11.468;2023-10-09T16:06:13;14.80;99.90
32640;DHT22;19049;52.524;11.468;2023-10-09T16:08:42;14.00;99.90
32640;DHT22;19049;52.524;11.468;2023-10-09T16:13:38;14.50;99.90
32640;DHT22;19049;52.524;11.468;2023-10-09T16:16:04;14.90;99.90
32640;DHT22;19049;52.524;11.468;2023-10-09T16:18:34;14.50;99.90
32640;DHT22;19049;52.524;11.468;2023-10-09T16:23:31;14.80;99.90
32640;DHT22;19049;52.524;11.468;2023-10-09T16:33:19;15.20;99.90
32640;DHT22;19049;52.524;11.468;2023-10-09T16:35:44;14.80;99.90
32640;DHT22;19049;52.524;11.468;2023-10-09T16:38:12;14.80;99.90
32640;DHT22;19049;52.524;11.468;2023-10-09T16:40:41;14.90;99.90
32640;DHT22;19049;52.524;11.468;2023-10-09T16:43:12;14.90;99.90
32640;DHT22;19049;52.524;11.468;2023-10-09T16:45:39;14.50;99.90
32640;DHT22;19049;52.524;11.468;2023-10-09T16:53:02;15.00;99.90
32640;DHT22;19049;52.524;11.468;2023-10-09T16:55:29;14.60;99.90
32640;DHT22;19049;52.524;11.468;2023-10-09T17:02:58;14.70;99.90
32640;DHT22;19049;52.524;11.468;2023-10-09T17:05:26;14.90;99.90
32640;DHT22;19049;52.524;11.468;2023-10-09T17:07:59;15.10;99.90
32640;DHT22;19049;52.524;11.468;2023-10-09T17:12:56;15.10;99.90
32640;DHT22;19049;52.524;11.468;2023-10-09T17:15:22;14.60;99.90
32640;DHT22;19049;52.524;11.468;2023-10-09T17:17:54;14.40;99.90
32640;DHT22;19049;52.524;11.468;2023-10-09T17:22:52;14.70;99.90
32640;DHT22;19049;52.524;11.468;2023-10-09T17:27:44;15.20;99.90
32640;DHT22;19049;52.524;11.468;2023-10-09T17:30:11;15.10;99.90
32640;DHT22;19049;52.524;11.468;2023-10-09T17:32:44;14.80;99.90
32640;DHT22;19049;52.524;11.468;2023-10-09T17:37:37;15.90;99.90
32640;DHT22;19049;52.524;11.468;2023-10-09T17:40:05;15.10;99.90
32640;DHT22;19049;52.524;11.468;2023-10-09T17:42:33;15.20;99.90
32640;DHT22;19049;52.524;11.468;2023-10-09T17:44:58;15.50;99.90
32640;DHT22;19049;52.524;11.468;2023-10-09T17:54:43;15.10;99.90
32640;DHT22;19049;52.524;11.468;2023-10-09T18:02:03;14.80;99.90
32640;DHT22;19049;52.524;11.468;2023-10-09T18:09:26;14.70;99.90
32640;DHT22;19049;52.524;11.468;2023-10-09T18:11:55;15.10;99.90
32640;DHT22;19049;52.524;11.468;2023-10-09T18:14:22;15.80;99.90
32640;DHT22;19049;52.524;11.468;2023-10-09T18:16:49;15.20;99.90
32640;DHT22;19049;52.524;11.468;2023-10-09T18:19:15;15.80;99.90
32640;DHT22;19049;52.524;11.468;2023-10-09T18:21:41;15.40;99.90
32640;DHT22;19049;52.524;11.468;2023-10-09T18:24:10;15.30;99.90
32640;DHT22;19049;52.524;11.468;2023-10-09T18:26:43;15.20;99.90
32640;DHT22;19049;52.524;11.468;2023-10-09T18:29:12;14.30;99.90
32640;DHT22;19049;52.524;11.468;2023-10-09T18:31:38;15.20;99.90
32640;DHT22;19049;52.524;11.468;2023-10-09T18:36:38;15.30;99.90
32640;DHT22;19049;52.524;11.468;2023-10-09T18:39:04;15.30;99.90
32640;DHT22;19049;52.524;11.468;2023-10-09T18:43:56;15.30;99.90
32640;DHT22;19049;52.524;11.468;2023-10-09T18:46:25;15.20;99.90
32640;DHT22;19049;52.524;11.468;2023-10-09T18:48:51;15.80;99.90
32640;DHT22;19049;52.524;11.468;2023-10-09T18:51:17;15.50;99.90
32640;DHT22;19049;52.524;11.468;2023-10-09T18:53:44;15.40;99.90
32640;DHT22;19049;52.524;11.468;2023-10-09T18:56:13;15.60;99.90
32640;DHT22;19049;52.524;11.468;2023-10-09T18:58:40;15.10;99.90
32640;DHT22;19049;52.524;11.468;2023-10-09T19:01:06;15.40;99.90
32640;DHT22;19049;52.524;11.468;2023-10-09T19:03:39;14.80;99.90
32640;DHT22;19049;52.524;11.468;2023-10-09T19:06:05;15.60;99.90
32640;DHT22;19049;52.524;11.468;2023-10-09T19:08:34;15.70;99.90
32640;DHT22;19049;52.524;11.468;2023-10-09T19:11:03;16.10;99.90
32640;DHT22;19049;52.524;11.468;2023-10-09T19:13:35;14.40;99.90
32640;DHT22;19049;52.524;11.468;2023-10-09T19:16:01;16.50;99.90
32640;DHT22;19049;52.524;11.468;2023-10-09T19:21:03;16.00;99.90
32640;DHT22;19049;52.524;11.468;2023-10-09T19:25:56;16.60;99.90
32640;DHT22;19049;52.524;11.468;2023-10-09T19:28:24;16.30;99.90
32640;DHT22;19049;52.524;11.468;2023-10-09T19:33:17;16.20;99.90
32640;DHT22;19049;52.524;11.468;2023-10-09T19:38:08;16.70;99.90
32640;DHT22;19049;52.524;11.468;2023-10-09T19:40:36;16.60;99.90
32640;DHT22;19049;52.524;11.468;2023-10-09T19:43:01;16.20;99.90
32640;DHT22;19049;52.524;11.468;2023-10-09T19:45:27;16.50;99.90
32640;DHT22;19049;52.524;11.468;2023-10-09T19:47:55;16.90;99.90
32640;DHT22;19049;52.524;11.468;2023-10-09T19:50:21;16.20;99.90
32640;DHT22;19049;52.524;11.468;2023-10-09T19:52:46;17.10;99.90
32640;DHT22;19049;52.524;11.468;2023-10-09T19:55:15;16.90;99.90
32640;DHT22;19049;52.524;11.468;2023-10-09T20:00:09;16.70;99.90
32640;DHT22;19049;52.524;11.468;2023-10-09T20:02:35;16.30;99.90
32640;DHT22;19049;52.524;11.468;2023-10-09T20:07:28;17.00;99.90
32640;DHT22;19049;52.524;11.468;2023-10-09T20:09:53;16.70;99.90
32640;DHT22;19049;52.524;11.468;2023-10-09T20:12:24;17.10;99.90
32640;DHT22;19049;52.524;11.468;2023-10-09T20:14:53;16.30;99.90
32640;DHT22;19049;52.524;11.468;2023-10-09T20:17:19;16.80;99.90
32640;DHT22;19049;52.524;11.468;2023-10-09T20:22:11;16.70;99.90
32640;DHT22;19049;52.524;11.468;2023-10-09T20:24:38;16.70;99.90
32640;DHT22;19049;52.524;11.468;2023-10-09T20:27:04;16.90;99.90
32640;DHT22;19049;52.524;11.468;2023-10-09T20:29:33;16.40;99.90
32640;DHT22;19049;52.524;11.468;2023-10-09T20:32:01;17.10;99.90
32640;DHT22;19049;52.524;11.468;2023-10-09T20:34:26;16.30;99.90
32640;DHT22;19049;52.524;11.468;2023-10-09T20:39:23;17.00;99.90
32640;DHT22;19049;52.524;11.468;2023-10-09T20:41:49;17.40;99.90
32640;DHT22;19049;52.524;11.468;2023-10-09T20:44:15;17.30;99.90
32640;DHT22;19049;52.524;11.468;2023-10-09T20:46:43;16.50;99.90
32640;DHT22;19049;52.524;11.468;2023-10-09T20:49:10;16.50;99.90
32640;DHT22;19049;52.524;11.468;2023-10-09T20:51:39;17.00;99.90
32640;DHT22;19049;52.524;11.468;2023-10-09T20:54:05;16.80;99.90